createdAt,value
2023-05-15T05:01:09.348Z,32.43
2023-05-15T05:02:09.181Z,32.47
2023-05-15T05:03:10.023Z,32.47
2023-05-15T05:04:09.460Z,32.46
2023-05-15T05:05:09.445Z,32.36
2023-05-15T05:06:09.417Z,32.46
2023-05-15T05:07:09.469Z,32.46
2023-05-15T05:08:09.493Z,32.40
2023-05-15T05:09:09.581Z,32.39
2023-05-15T05:10:09.648Z,32.37
2023-05-15T05:11:09.587Z,32.39
2023-05-15T05:12:09.734Z,32.32
2023-05-15T05:13:09.859Z,32.34
2023-05-15T05:14:09.732Z,32.26
2023-05-15T05:15:09.765Z,32.32
2023-05-15T05:16:09.910Z,32.28
2023-05-15T05:17:09.937Z,32.23
2023-05-15T05:18:09.945Z,32.21
2023-05-15T05:19:09.972Z,32.20
2023-05-15T05:20:12.469Z,32.20
2023-05-15T05:21:09.989Z,32.20
2023-05-15T05:22:09.962Z,32.16
2023-05-15T05:23:09.911Z,32.19
2023-05-15T05:24:09.976Z,32.14
2023-05-15T05:25:09.924Z,32.16
2023-05-15T05:26:09.980Z,32.14
2023-05-15T05:27:09.929Z,32.14
2023-05-15T05:28:09.919Z,32.09
2023-05-15T05:29:09.893Z,32.19
2023-05-15T05:30:09.943Z,32.10
2023-05-15T05:31:09.931Z,32.06
2023-05-15T05:32:09.971Z,32.08
2023-05-15T05:33:10.055Z,32.10
2023-05-15T05:34:09.872Z,32.13
2023-05-15T05:35:09.916Z,32.11
2023-05-15T05:36:09.879Z,32.09
2023-05-15T05:37:09.851Z,32.11
2023-05-15T05:38:09.835Z,32.12
2023-05-15T05:39:09.846Z,32.12
2023-05-15T05:40:09.864Z,32.10
2023-05-15T05:41:09.913Z,32.14
2023-05-15T05:42:09.806Z,32.23
2023-05-15T05:43:09.793Z,32.20
2023-05-15T05:44:09.806Z,32.19
2023-05-15T05:45:09.793Z,32.29
2023-05-15T05:46:09.802Z,32.32
2023-05-15T05:47:09.807Z,32.16
2023-05-15T05:48:09.891Z,32.10
2023-05-15T05:49:09.787Z,33.03
2023-05-15T05:50:09.800Z,33.31
2023-05-15T05:51:09.826Z,33.10
2023-05-15T05:52:09.779Z,32.93
2023-05-15T05:53:09.764Z,33.22
2023-05-15T05:54:09.729Z,33.29
2023-05-15T05:55:09.731Z,33.50
2023-05-15T05:56:10.292Z,33.42
2023-05-15T05:57:10.974Z,33.44
2023-05-15T05:58:21.723Z,33.39
2023-05-15T05:59:10.717Z,33.36
2023-05-15T06:00:09.718Z,33.29
2023-05-15T06:01:09.673Z,33.42
2023-05-15T06:02:09.793Z,33.21
2023-05-15T06:03:09.767Z,33.28
2023-05-15T06:04:09.752Z,33.19
2023-05-15T06:05:15.464Z,33.27
2023-05-15T06:06:11.864Z,33.22
2023-05-15T06:07:11.318Z,33.32
2023-05-15T06:08:09.722Z,33.18
2023-05-15T06:09:09.703Z,33.12
2023-05-15T06:10:09.720Z,33.06
2023-05-15T06:11:09.638Z,33.02
2023-05-15T06:12:09.615Z,33.07
2023-05-15T06:13:09.626Z,33.07
2023-05-15T06:14:09.576Z,33.05
2023-05-15T06:15:09.610Z,33.08
2023-05-15T06:16:11.339Z,32.98
2023-05-15T06:18:28.863Z,33.08
2023-05-15T06:19:28.831Z,33.13
2023-05-15T06:20:28.895Z,33.13
2023-05-15T06:21:28.858Z,33.08
2023-05-15T06:22:28.818Z,33.03
2023-05-15T06:23:28.826Z,33.09
2023-05-15T06:24:28.818Z,33.22
2023-05-15T06:25:28.780Z,33.17
2023-05-15T06:26:28.786Z,33.26
2023-05-15T06:27:28.794Z,33.49
2023-05-15T06:28:28.812Z,33.56
2023-05-15T06:29:28.806Z,33.63
2023-05-15T06:30:28.812Z,33.63
2023-05-15T06:31:28.795Z,34.01
2023-05-15T06:32:28.839Z,33.96
2023-05-15T06:33:28.783Z,33.99
2023-05-15T06:34:28.787Z,33.97
2023-05-15T06:35:28.757Z,33.85
2023-05-15T06:36:28.760Z,33.81
2023-05-15T06:37:28.740Z,33.86
2023-05-15T06:38:28.720Z,33.70
2023-05-15T06:39:28.752Z,33.67
2023-05-15T06:40:28.781Z,33.68
2023-05-15T06:41:28.813Z,33.79
2023-05-15T06:42:28.710Z,33.67
2023-05-15T06:43:28.683Z,33.65
2023-05-15T06:44:28.710Z,33.67
2023-05-15T06:45:28.993Z,33.67
2023-05-15T06:46:28.701Z,33.65
2023-05-15T06:47:28.754Z,33.67
2023-05-15T06:48:28.725Z,33.69
2023-05-15T06:49:28.659Z,33.71
2023-05-15T06:50:28.645Z,33.69
2023-05-15T06:51:28.633Z,33.84
2023-05-15T06:52:28.608Z,33.87
2023-05-15T06:53:28.623Z,33.78
2023-05-15T06:54:28.643Z,33.78
2023-05-15T06:55:28.638Z,33.86
2023-05-15T06:56:28.603Z,33.86
2023-05-15T06:57:28.615Z,33.89
2023-05-15T06:58:28.599Z,33.83
2023-05-15T06:59:28.570Z,33.75
2023-05-15T07:00:28.606Z,33.92
2023-05-15T07:01:28.725Z,33.98
2023-05-15T07:02:28.798Z,33.98
2023-05-15T07:03:28.763Z,33.89
2023-05-15T07:04:28.980Z,33.96
2023-05-15T07:05:29.399Z,34.00
2023-05-15T07:06:29.958Z,34.10
2023-05-15T07:07:28.987Z,34.17
2023-05-15T07:08:29.083Z,34.07
2023-05-15T07:09:29.123Z,34.25
2023-05-15T07:10:29.162Z,34.08
2023-05-15T07:11:29.198Z,34.11
2023-05-15T07:12:29.311Z,34.11
2023-05-15T07:13:29.323Z,34.06
2023-05-15T07:14:29.398Z,34.15
2023-05-15T07:15:29.465Z,34.15
2023-05-15T07:16:29.492Z,34.10
2023-05-15T07:17:29.614Z,34.10
2023-05-15T07:18:29.763Z,33.97
2023-05-15T07:19:29.753Z,33.98
2023-05-15T07:20:32.472Z,34.06
2023-05-15T07:21:29.742Z,34.05
2023-05-15T07:22:29.937Z,34.17
2023-05-15T07:23:29.660Z,34.16
2023-05-15T07:24:29.770Z,34.19
2023-05-15T07:25:29.737Z,34.17
2023-05-15T07:26:36.225Z,34.15
2023-05-15T07:27:30.702Z,34.14
2023-05-15T07:28:29.676Z,34.11
2023-05-15T07:29:29.616Z,34.22
2023-05-15T07:30:29.640Z,34.17
2023-05-15T07:31:29.690Z,34.34
2023-05-15T07:32:29.652Z,34.30
2023-05-15T07:33:29.664Z,34.21
2023-05-15T07:34:29.625Z,33.78
2023-05-15T07:35:29.620Z,33.54
2023-05-15T07:36:29.742Z,33.75
2023-05-15T07:37:29.732Z,33.85
2023-05-15T07:38:29.785Z,33.85
2023-05-15T07:39:29.940Z,34.07
2023-05-15T07:40:29.909Z,34.09
2023-05-15T07:41:29.964Z,34.08
2023-05-15T07:42:30.038Z,34.13
2023-05-15T07:43:30.146Z,34.04
2023-05-15T07:44:30.165Z,34.05
2023-05-15T07:45:30.228Z,34.08
2023-05-15T07:46:30.268Z,34.07
2023-05-15T07:47:30.341Z,34.07
2023-05-15T07:48:30.303Z,34.08
2023-05-15T07:49:30.360Z,34.13
2023-05-15T07:50:30.452Z,34.14
2023-05-15T07:51:30.477Z,34.14
2023-05-15T07:52:30.487Z,34.19
2023-05-15T07:53:30.493Z,34.26
2023-05-15T07:54:30.558Z,34.43
2023-05-15T07:55:31.597Z,34.27
2023-05-15T07:56:30.797Z,34.17
2023-05-15T07:57:30.738Z,34.08
2023-05-15T07:58:30.733Z,34.03
2023-05-15T07:59:30.817Z,33.92
2023-05-15T08:00:30.834Z,33.86
2023-05-15T08:01:32.678Z,33.81
2023-05-15T08:02:31.098Z,33.77
2023-05-15T08:03:31.071Z,33.85
2023-05-15T08:04:31.077Z,33.83
2023-05-15T08:05:31.155Z,33.76
2023-05-15T08:06:31.119Z,33.77
2023-05-15T08:07:31.230Z,33.78
2023-05-15T08:08:31.224Z,33.72
2023-05-15T08:09:31.296Z,33.74
2023-05-15T08:10:31.357Z,33.79
2023-05-15T08:11:31.379Z,33.75
2023-05-15T08:12:31.619Z,33.64
2023-05-15T08:13:31.576Z,33.65
2023-05-15T08:14:31.592Z,33.51
2023-05-15T08:15:31.611Z,33.56
2023-05-15T08:16:31.868Z,33.61
2023-05-15T08:17:31.808Z,33.55
2023-05-15T08:18:31.828Z,33.59
2023-05-15T08:19:31.881Z,33.40
2023-05-15T08:20:31.908Z,33.45
2023-05-15T08:21:31.954Z,33.46
2023-05-15T08:22:32.160Z,33.48
2023-05-15T08:23:32.077Z,33.42
2023-05-15T08:24:32.164Z,33.38
2023-05-15T08:25:32.228Z,33.42
2023-05-15T08:26:32.236Z,33.40
2023-05-15T08:27:32.337Z,33.32
2023-05-15T08:28:32.737Z,33.36
2023-05-15T08:29:32.440Z,33.71
2023-05-15T08:30:32.471Z,33.60
2023-05-15T08:31:32.594Z,33.93
2023-05-15T08:32:32.671Z,33.93
2023-05-15T08:33:32.624Z,34.71
2023-05-15T08:34:32.740Z,34.39
2023-05-15T08:35:32.781Z,34.42
2023-05-15T08:36:32.877Z,33.27
2023-05-15T08:37:32.834Z,33.70
2023-05-15T08:38:32.874Z,33.62
2023-05-15T08:39:33.617Z,33.38
2023-05-15T08:40:39.196Z,32.97
2023-05-15T08:41:40.746Z,32.80
2023-05-15T08:42:34.465Z,33.31
2023-05-15T08:43:33.622Z,33.38
2023-05-15T08:44:32.885Z,33.11
2023-05-15T08:45:32.908Z,32.92
2023-05-15T08:46:32.936Z,33.05
2023-05-15T08:47:32.899Z,33.12
2023-05-15T08:48:32.934Z,33.00
2023-05-15T08:50:31.715Z,34.08
2023-05-15T08:51:31.742Z,33.32
2023-05-15T08:52:31.710Z,34.15
2023-05-15T08:53:31.678Z,34.57
2023-05-15T08:54:31.697Z,34.21
2023-05-15T08:55:31.721Z,33.43
2023-05-15T08:56:31.679Z,32.91
2023-05-15T08:57:31.694Z,32.69
2023-05-15T08:58:31.644Z,32.95
2023-05-15T08:59:31.641Z,32.77
2023-05-15T09:00:31.656Z,32.70
2023-05-15T09:01:31.688Z,32.67
2023-05-15T09:02:31.722Z,32.62
2023-05-15T09:03:31.815Z,32.44
2023-05-15T09:04:31.617Z,32.48
2023-05-15T09:05:31.671Z,32.72
2023-05-15T09:06:31.614Z,32.65
2023-05-15T09:07:31.628Z,33.05
2023-05-15T09:08:31.602Z,33.55
2023-05-15T09:09:31.635Z,33.83
2023-05-15T09:10:31.622Z,33.77
2023-05-15T09:11:31.585Z,33.80
2023-05-15T09:12:31.577Z,33.87
2023-05-15T09:13:31.569Z,34.07
2023-05-15T09:14:31.588Z,34.04
2023-05-15T09:15:31.572Z,34.53
2023-05-15T09:16:31.574Z,34.39
2023-05-15T09:17:31.561Z,34.26
2023-05-15T09:18:31.542Z,34.23
2023-05-15T09:19:31.518Z,34.22
2023-05-15T09:20:31.518Z,34.30
2023-05-15T09:21:31.491Z,34.33
2023-05-15T09:22:31.531Z,34.41
2023-05-15T09:23:31.502Z,34.88
2023-05-15T09:24:31.595Z,34.57
2023-05-15T09:25:31.666Z,34.64
2023-05-15T09:26:31.647Z,34.57
2023-05-15T09:27:31.733Z,34.68
2023-05-15T09:28:31.794Z,34.67
2023-05-15T09:29:31.793Z,34.71
2023-05-15T09:30:31.944Z,34.89
2023-05-15T09:31:31.954Z,34.81
2023-05-15T09:32:31.978Z,34.81
2023-05-15T09:33:31.976Z,34.77
2023-05-15T09:34:32.043Z,34.82
2023-05-15T09:35:32.253Z,34.71
2023-05-15T09:36:32.114Z,34.68
2023-05-15T09:37:32.156Z,34.81
2023-05-15T09:38:32.244Z,34.75
2023-05-15T09:39:32.273Z,34.82
2023-05-15T09:40:32.334Z,35.11
2023-05-15T09:41:32.325Z,34.86
2023-05-15T09:42:32.365Z,35.05
2023-05-15T09:43:32.429Z,35.14
2023-05-15T09:44:32.465Z,35.23
2023-05-15T09:45:32.526Z,35.44
2023-05-15T09:46:32.593Z,35.40
2023-05-15T09:47:32.739Z,35.36
2023-05-15T09:48:32.772Z,35.39
2023-05-15T09:49:33.333Z,35.39
2023-05-15T09:50:32.596Z,35.60
2023-05-15T09:51:33.432Z,35.69
2023-05-15T09:52:32.622Z,35.64
2023-05-15T09:53:32.614Z,35.81
2023-05-15T09:54:32.629Z,35.80
2023-05-15T09:55:32.538Z,35.79
2023-05-15T09:56:32.584Z,35.87
2023-05-15T09:57:32.551Z,35.84
2023-05-15T09:58:32.536Z,35.96
2023-05-15T09:59:32.529Z,36.05
2023-05-15T10:00:32.752Z,36.18
2023-05-15T10:01:32.581Z,36.18
2023-05-15T10:02:32.748Z,36.24
2023-05-15T10:03:32.502Z,36.29
2023-05-15T10:04:32.536Z,36.24
2023-05-15T10:05:42.488Z,36.39
2023-05-15T10:06:33.554Z,36.39
2023-05-15T10:07:32.534Z,36.45
2023-05-15T10:08:32.695Z,36.57
2023-05-15T10:09:32.568Z,36.71
2023-05-15T10:10:32.494Z,36.62
2023-05-15T10:11:32.498Z,36.78
2023-05-15T10:12:32.624Z,36.70
2023-05-15T10:13:32.505Z,36.85
2023-05-15T10:14:32.462Z,36.86
2023-05-15T10:15:32.494Z,36.82
2023-05-15T10:16:32.555Z,36.73
2023-05-15T10:17:32.475Z,36.76
2023-05-15T10:18:32.504Z,36.89
2023-05-15T10:19:32.458Z,36.74
2023-05-15T10:20:32.449Z,36.75
2023-05-15T10:21:32.468Z,36.72
2023-05-15T10:22:32.456Z,36.76
2023-05-15T10:23:32.456Z,36.74
2023-05-15T10:24:32.441Z,36.75
2023-05-15T10:25:32.534Z,36.60
2023-05-15T10:26:32.400Z,36.59
2023-05-15T10:27:32.396Z,36.43
2023-05-15T10:28:32.467Z,36.34
2023-05-15T10:29:32.417Z,36.28
2023-05-15T10:30:32.364Z,36.21
2023-05-15T10:31:32.462Z,36.24
2023-05-15T10:32:32.452Z,36.21
2023-05-15T10:33:32.426Z,36.12
2023-05-15T10:34:32.478Z,36.04
2023-05-15T10:35:32.478Z,36.02
2023-05-15T10:36:33.025Z,35.81
2023-05-15T10:37:32.484Z,35.83
2023-05-15T10:38:32.551Z,35.88
2023-05-15T10:39:33.079Z,35.71
2023-05-15T10:40:32.587Z,35.61
2023-05-15T10:41:32.583Z,35.58
2023-05-15T10:42:32.621Z,35.59
2023-05-15T10:43:32.672Z,35.42
2023-05-15T10:44:32.699Z,35.50
2023-05-15T10:45:32.706Z,35.57
2023-05-15T10:46:32.776Z,35.53
2023-05-15T10:47:32.763Z,35.49
2023-05-15T10:48:32.783Z,35.47
2023-05-15T10:49:32.783Z,35.35
2023-05-15T10:50:32.887Z,35.24
2023-05-15T10:51:32.896Z,35.27
2023-05-15T10:52:32.907Z,35.23
2023-05-15T10:53:32.918Z,35.18
2023-05-15T10:54:32.972Z,35.12
2023-05-15T10:55:32.986Z,35.08
2023-05-15T10:56:33.026Z,35.11
2023-05-15T10:57:33.045Z,35.07
2023-05-15T10:58:33.090Z,34.97
2023-05-15T10:59:33.126Z,34.90
2023-05-15T11:00:33.158Z,34.92
2023-05-15T11:01:33.249Z,34.54
2023-05-15T11:02:33.217Z,34.64
2023-05-15T11:03:44.880Z,34.28
2023-05-15T11:04:34.316Z,33.85
2023-05-15T11:05:33.232Z,34.16
2023-05-15T11:06:33.340Z,34.09
2023-05-15T11:07:33.205Z,34.08
2023-05-15T11:08:33.209Z,34.07
2023-05-15T11:09:33.235Z,34.53
2023-05-15T11:10:33.177Z,34.58
2023-05-15T11:11:33.172Z,34.76
2023-05-15T11:12:33.188Z,34.68
2023-05-15T11:13:33.207Z,34.65
2023-05-15T11:14:33.245Z,34.39
2023-05-15T11:15:33.302Z,34.04
2023-05-15T11:16:33.381Z,34.13
2023-05-15T11:17:33.461Z,34.26
2023-05-15T11:18:33.524Z,34.25
2023-05-15T11:19:33.516Z,34.33
2023-05-15T11:20:35.065Z,34.32
2023-05-15T11:21:33.612Z,34.38
2023-05-15T11:22:33.626Z,34.36
2023-05-15T11:23:33.672Z,34.41
2023-05-15T11:24:33.716Z,34.41
2023-05-15T11:25:33.762Z,34.39
2023-05-15T11:26:33.804Z,34.44
2023-05-15T11:27:33.872Z,34.51
2023-05-15T11:28:33.847Z,34.44
2023-05-15T11:29:33.849Z,34.50
2023-05-15T11:30:33.904Z,34.51
2023-05-15T11:31:35.152Z,34.45
2023-05-15T11:32:34.001Z,34.52
2023-05-15T11:33:34.077Z,34.41
2023-05-15T11:34:34.063Z,34.50
2023-05-15T11:35:34.100Z,34.49
2023-05-15T11:36:35.173Z,34.52
2023-05-15T11:37:34.184Z,34.56
2023-05-15T11:38:34.178Z,34.55
2023-05-15T11:39:34.218Z,34.55
2023-05-15T11:40:37.569Z,34.59
2023-05-15T11:41:34.279Z,34.62
2023-05-15T11:42:34.210Z,34.70
2023-05-15T11:43:34.218Z,34.71
2023-05-15T11:44:34.887Z,34.65
2023-05-15T11:45:34.301Z,34.64
2023-05-15T11:46:34.259Z,34.71
2023-05-15T11:47:35.074Z,34.76
2023-05-15T11:48:34.197Z,34.79
2023-05-15T11:49:34.169Z,34.82
2023-05-15T11:50:34.185Z,34.83
2023-05-15T11:51:34.177Z,34.90
2023-05-15T11:52:34.181Z,34.90
2023-05-15T11:53:34.242Z,34.93
2023-05-15T11:54:34.240Z,34.93
2023-05-15T11:55:34.116Z,34.91
2023-05-15T11:56:34.185Z,34.95
2023-05-15T11:57:34.139Z,34.92
2023-05-15T11:58:34.169Z,34.99
2023-05-15T11:59:34.523Z,35.01
2023-05-15T12:00:34.114Z,35.03
2023-05-15T12:01:34.141Z,35.07
2023-05-15T12:02:34.183Z,35.13
2023-05-15T12:03:34.270Z,35.08
2023-05-15T12:04:34.107Z,35.06
2023-05-15T12:05:34.062Z,34.88
2023-05-15T12:06:34.061Z,34.80
2023-05-15T12:07:34.081Z,34.79
2023-05-15T12:08:34.043Z,34.68
2023-05-15T12:09:34.046Z,34.71
2023-05-15T12:10:34.091Z,34.64
2023-05-15T12:11:34.042Z,34.56
2023-05-15T12:12:34.013Z,34.54
2023-05-15T12:13:34.090Z,34.51
2023-05-15T12:14:34.057Z,34.48
2023-05-15T12:15:34.024Z,34.39
2023-05-15T12:16:33.979Z,34.17
2023-05-15T12:17:34.040Z,34.22
2023-05-15T12:18:34.003Z,34.22
2023-05-15T12:19:33.946Z,34.33
2023-05-15T12:20:34.052Z,34.16
2023-05-15T12:21:36.499Z,34.18
2023-05-15T12:22:33.945Z,34.12
2023-05-15T12:23:33.925Z,34.12
2023-05-15T12:24:33.980Z,34.08
2023-05-15T12:25:33.944Z,34.05
2023-05-15T12:26:33.930Z,34.10
2023-05-15T12:27:33.980Z,34.13
2023-05-15T12:28:33.895Z,34.13
2023-05-15T12:29:33.921Z,34.09
2023-05-15T12:30:33.908Z,34.09
2023-05-15T12:31:34.036Z,33.98
2023-05-15T12:32:33.985Z,34.00
2023-05-15T12:33:33.873Z,33.94
2023-05-15T12:34:33.877Z,33.93
2023-05-15T12:35:33.923Z,33.98
2023-05-15T12:36:33.887Z,33.92
2023-05-15T12:37:33.872Z,33.95
2023-05-15T12:38:33.949Z,33.93
2023-05-15T12:39:33.803Z,33.89
2023-05-15T12:40:33.827Z,33.82
2023-05-15T12:41:33.810Z,33.81
2023-05-15T12:42:33.860Z,33.80
2023-05-15T12:43:33.840Z,33.79
2023-05-15T12:44:33.795Z,33.79
2023-05-15T12:45:33.795Z,33.68
2023-05-15T12:46:34.723Z,33.66
2023-05-15T12:47:33.849Z,33.65
2023-05-15T12:48:33.821Z,33.56
2023-05-15T12:49:33.769Z,33.58
2023-05-15T12:50:33.824Z,33.48
2023-05-15T12:51:33.792Z,33.48
2023-05-15T12:52:33.779Z,33.46
2023-05-15T12:53:33.877Z,33.41
2023-05-15T12:54:33.732Z,32.80
2023-05-15T12:55:33.752Z,31.34
2023-05-15T12:56:33.722Z,31.21
2023-05-15T12:57:33.735Z,31.57
2023-05-15T12:58:33.736Z,32.17
2023-05-15T12:59:33.804Z,32.08
2023-05-15T13:00:33.820Z,32.04
2023-05-15T13:01:33.977Z,32.19
2023-05-15T13:02:33.911Z,32.34
2023-05-15T13:03:34.181Z,32.46
2023-05-15T13:04:33.874Z,32.53
2023-05-15T13:05:33.817Z,32.49
2023-05-15T13:06:45.750Z,32.45
2023-05-15T13:07:34.819Z,32.43
2023-05-15T13:08:33.827Z,32.39
2023-05-15T13:09:34.518Z,32.41
2023-05-15T13:10:34.111Z,32.45
2023-05-15T13:11:33.847Z,32.46
2023-05-15T13:12:33.810Z,32.48
2023-05-15T13:13:33.780Z,32.37
2023-05-15T13:14:33.803Z,32.42
2023-05-15T13:15:33.866Z,32.34
2023-05-15T13:16:33.874Z,32.28
2023-05-15T13:17:33.824Z,32.24
2023-05-15T13:18:33.858Z,32.33
2023-05-15T13:19:34.541Z,32.30
2023-05-15T13:20:33.744Z,32.26
2023-05-15T13:21:33.721Z,32.27
2023-05-15T13:22:33.807Z,32.25
2023-05-15T13:23:33.743Z,32.30
2023-05-15T13:24:33.714Z,32.24
2023-05-15T13:25:33.694Z,32.14
2023-05-15T13:26:33.753Z,32.11
2023-05-15T13:27:33.818Z,32.14
2023-05-15T13:28:33.917Z,32.10
2023-05-15T13:29:33.897Z,32.11
2023-05-15T13:30:33.950Z,32.05
2023-05-15T13:31:34.059Z,32.01
2023-05-15T13:32:34.158Z,31.70
2023-05-15T13:33:34.136Z,31.72
2023-05-15T13:34:34.126Z,31.85
2023-05-15T13:35:34.176Z,31.94
2023-05-15T13:36:34.294Z,31.94
2023-05-15T13:37:34.280Z,31.93
2023-05-15T13:38:34.359Z,31.87
2023-05-15T13:39:34.359Z,31.88
2023-05-15T13:40:34.443Z,31.90
2023-05-15T13:41:34.476Z,31.83
2023-05-15T13:42:34.459Z,31.90
2023-05-15T13:43:34.473Z,31.85
2023-05-15T13:44:34.427Z,31.80
2023-05-15T13:45:34.528Z,31.82
2023-05-15T13:46:34.494Z,31.81
2023-05-15T13:47:34.455Z,31.80
2023-05-15T13:48:34.387Z,31.68
2023-05-15T13:49:34.401Z,31.62
2023-05-15T13:50:34.405Z,31.61
2023-05-15T13:51:34.387Z,31.69
2023-05-15T13:52:34.445Z,31.61
2023-05-15T13:53:34.390Z,31.58
2023-05-15T13:54:34.365Z,31.52
2023-05-15T13:55:34.464Z,31.46
2023-05-15T13:56:34.545Z,31.48
2023-05-15T13:57:34.468Z,31.47
2023-05-15T13:58:34.520Z,31.41
2023-05-15T13:59:34.580Z,31.33
2023-05-15T14:00:34.625Z,31.33
2023-05-15T14:01:34.616Z,31.24
2023-05-15T14:02:34.671Z,31.26
2023-05-15T14:03:34.867Z,31.36
2023-05-15T14:04:34.690Z,31.41
2023-05-15T14:05:34.763Z,31.46
2023-05-15T14:06:34.800Z,31.72
2023-05-15T14:07:34.905Z,31.57
2023-05-15T14:08:34.827Z,31.49
2023-05-15T14:09:35.048Z,31.52
2023-05-15T14:10:34.952Z,31.52
2023-05-15T14:11:35.031Z,31.53
2023-05-15T14:12:34.989Z,31.55
2023-05-15T14:13:35.023Z,31.56
2023-05-15T14:14:35.038Z,31.56
2023-05-15T14:15:35.058Z,31.55
2023-05-15T14:16:35.265Z,31.53
2023-05-15T14:17:35.361Z,31.60
2023-05-15T14:18:35.163Z,31.59
2023-05-15T14:19:35.158Z,31.60
2023-05-15T14:20:35.182Z,31.62
2023-05-15T14:21:35.235Z,31.60
2023-05-15T14:22:35.230Z,31.64
2023-05-15T14:23:35.281Z,31.63
2023-05-15T14:24:35.321Z,31.63
2023-05-15T14:25:35.339Z,31.66
2023-05-15T14:26:35.378Z,31.69
2023-05-15T14:27:35.439Z,31.63
2023-05-15T14:28:35.491Z,31.66
2023-05-15T14:29:35.482Z,31.73
2023-05-15T14:30:35.505Z,31.71
2023-05-15T14:31:35.638Z,31.70
2023-05-15T14:32:35.629Z,31.77
2023-05-15T14:33:35.574Z,31.76
2023-05-15T14:34:35.587Z,31.74
2023-05-15T14:35:35.685Z,31.78
2023-05-15T14:36:35.747Z,31.85
2023-05-15T14:37:35.680Z,31.80
2023-05-15T14:38:35.722Z,31.84
2023-05-15T14:39:35.745Z,31.84
2023-05-15T14:40:35.830Z,31.86
2023-05-15T14:41:35.840Z,31.83
2023-05-15T14:42:35.843Z,31.85
2023-05-15T14:43:35.861Z,31.84
2023-05-15T14:44:35.932Z,31.88
2023-05-15T14:45:35.933Z,31.91
2023-05-15T14:46:36.028Z,31.88
2023-05-15T14:47:35.937Z,31.91
2023-05-15T14:48:35.915Z,31.88
2023-05-15T14:49:35.937Z,31.92
2023-05-15T14:50:35.882Z,31.94
2023-05-15T14:51:35.913Z,31.95
2023-05-15T14:52:36.150Z,31.96
2023-05-15T14:53:35.871Z,31.96
2023-05-15T14:54:35.922Z,32.01
2023-05-15T14:55:35.898Z,32.02
2023-05-15T14:56:35.892Z,31.97
2023-05-15T14:57:35.892Z,32.03
2023-05-15T14:58:35.852Z,31.97
2023-05-15T14:59:35.856Z,32.02
2023-05-15T15:00:35.881Z,32.02
2023-05-15T15:01:36.033Z,32.02
2023-05-15T15:02:36.034Z,32.05
2023-05-15T15:03:36.050Z,32.02
2023-05-15T15:04:36.008Z,32.02
2023-05-15T15:05:36.064Z,32.08
2023-05-15T15:06:36.073Z,32.06
2023-05-15T15:07:36.055Z,32.02
2023-05-15T15:08:36.133Z,32.03
2023-05-15T15:09:36.155Z,32.04
2023-05-15T15:10:36.172Z,32.04
2023-05-15T15:11:36.232Z,32.05
2023-05-15T15:12:36.235Z,32.04
2023-05-15T15:13:36.259Z,32.05
2023-05-15T15:14:36.349Z,32.11
2023-05-15T15:15:36.321Z,32.08
2023-05-15T15:16:36.457Z,32.07
2023-05-15T15:17:36.408Z,32.05
2023-05-15T15:18:36.461Z,32.12
2023-05-15T15:19:36.474Z,32.09
2023-05-15T15:20:36.481Z,32.12
2023-05-15T15:21:36.551Z,32.07
2023-05-15T15:22:36.566Z,32.04
2023-05-15T15:23:36.602Z,32.08
2023-05-15T15:24:36.639Z,32.11
2023-05-15T15:25:36.654Z,32.11
2023-05-15T15:26:36.664Z,32.11
2023-05-15T15:27:36.735Z,32.14
2023-05-15T15:28:36.771Z,32.12
2023-05-15T15:29:36.812Z,32.15
2023-05-15T15:30:36.836Z,32.15
2023-05-15T15:31:36.917Z,32.19
2023-05-15T15:32:36.958Z,32.16
2023-05-15T15:33:36.937Z,32.16
2023-05-15T15:34:36.999Z,32.20
2023-05-15T15:35:37.052Z,32.19
2023-05-15T15:36:47.846Z,32.22
2023-05-15T15:37:37.029Z,32.20
2023-05-15T15:38:37.026Z,32.19
2023-05-15T15:39:37.055Z,32.23
2023-05-15T15:40:37.112Z,32.24
2023-05-15T15:41:37.006Z,32.22
2023-05-15T15:42:37.014Z,32.26
2023-05-15T15:43:37.009Z,32.25
2023-05-15T15:44:36.984Z,32.26
2023-05-15T15:45:37.045Z,32.24
2023-05-15T15:46:37.028Z,32.27
2023-05-15T15:47:37.018Z,32.24
2023-05-15T15:48:37.006Z,32.27
2023-05-15T15:49:37.047Z,32.28
2023-05-15T15:50:36.976Z,32.25
2023-05-15T15:51:36.934Z,32.25
2023-05-15T15:52:36.937Z,32.31
2023-05-15T15:53:36.989Z,32.30
2023-05-15T15:54:37.011Z,32.31
2023-05-15T15:55:37.069Z,32.30
2023-05-15T15:56:37.157Z,32.33
2023-05-15T15:57:37.257Z,32.32
2023-05-15T15:58:37.204Z,32.30
2023-05-15T15:59:37.235Z,32.30
2023-05-15T16:00:37.291Z,32.32
2023-05-15T16:01:37.356Z,32.31
2023-05-15T16:02:37.370Z,32.35
2023-05-15T16:03:37.421Z,32.32
2023-05-15T16:04:37.440Z,32.35
2023-05-15T16:05:37.517Z,32.32
2023-05-15T16:06:37.545Z,32.34
2023-05-15T16:07:37.585Z,32.37
2023-05-15T16:08:37.622Z,32.34
2023-05-15T16:09:37.718Z,32.35
2023-05-15T16:10:37.701Z,32.36
2023-05-15T16:11:37.732Z,32.32
2023-05-15T16:12:37.801Z,32.36
2023-05-15T16:13:39.633Z,32.34
2023-05-15T16:14:37.839Z,32.37
2023-05-15T16:15:37.877Z,32.39
2023-05-15T16:16:37.878Z,32.36
2023-05-15T16:17:37.937Z,32.39
2023-05-15T16:18:37.808Z,32.38
2023-05-15T16:19:37.792Z,32.42
2023-05-15T16:20:37.800Z,32.39
2023-05-15T16:21:37.777Z,32.45
2023-05-15T16:22:37.793Z,32.43
2023-05-15T16:23:37.759Z,32.40
2023-05-15T16:24:37.761Z,32.42
2023-05-15T16:25:37.784Z,32.40
2023-05-15T16:26:37.744Z,32.42
2023-05-15T16:27:37.774Z,32.39
2023-05-15T16:28:37.745Z,32.46
2023-05-15T16:29:37.751Z,32.40
2023-05-15T16:30:48.309Z,32.46
2023-05-15T16:31:37.739Z,32.48
2023-05-15T16:32:37.795Z,32.53
2023-05-15T16:33:37.697Z,32.45
2023-05-15T16:34:37.699Z,32.43
2023-05-15T16:35:37.678Z,32.51
2023-05-15T16:36:37.665Z,32.46
2023-05-15T16:37:37.691Z,32.50
2023-05-15T16:38:37.659Z,32.47
2023-05-15T16:39:37.648Z,32.47
2023-05-15T16:40:37.647Z,32.48
2023-05-15T16:41:37.646Z,32.48
2023-05-15T16:42:37.988Z,32.48
2023-05-15T16:43:37.721Z,32.44
2023-05-15T16:44:37.774Z,32.47
2023-05-15T16:45:37.800Z,32.50
2023-05-15T16:46:37.882Z,32.53
2023-05-15T16:47:38.235Z,32.48
2023-05-15T16:48:37.908Z,32.50
2023-05-15T16:49:37.966Z,32.56
2023-05-15T16:50:38.013Z,32.73
2023-05-15T16:51:38.036Z,32.70
2023-05-15T16:52:38.110Z,32.70
2023-05-15T16:53:38.143Z,32.70
2023-05-15T16:54:38.184Z,32.89
2023-05-15T16:55:38.228Z,32.95
2023-05-15T16:56:38.254Z,32.94
2023-05-15T16:57:38.412Z,32.88
2023-05-15T16:58:38.355Z,32.94
2023-05-15T16:59:38.397Z,33.01
2023-05-15T17:00:38.484Z,33.31
